sensor_id;sensor_type;location;lat;lon;timestamp;pressure;altitude;pressure_sealevel;temperature
24639;BMP180;1641;51.306;12.384;2022-07-06T00:01:47;100709.00;;;21.30
24639;BMP180;1641;51.306;12.384;2022-07-06T00:04:13;100721.00;;;20.90
24639;BMP180;1641;51.306;12.384;2022-07-06T00:06:38;100675.00;;;21.20
24639;BMP180;1641;51.306;12.384;2022-07-06T00:09:05;100721.00;;;20.80
24639;BMP180;1641;51.306;12.384;2022-07-06T00:11:30;100718.00;;;20.70
24639;BMP180;1641;51.306;12.384;2022-07-06T00:13:56;100718.00;;;20.70
24639;BMP180;1641;51.306;12.384;2022-07-06T00:16:22;100723.00;;;20.80
24639;BMP180;1641;51.306;12.384;2022-07-06T00:18:48;100723.00;;;20.90
24639;BMP180;1641;51.306;12.384;2022-07-06T00:21:13;100718.00;;;21.10
24639;BMP180;1641;51.306;12.384;2022-07-06T00:23:38;100708.00;;;20.80
24639;BMP180;1641;51.306;12.384;2022-07-06T00:26:03;100711.00;;;21.10
24639;BMP180;1641;51.306;12.384;2022-07-06T00:28:29;100716.00;;;20.90
24639;BMP180;1641;51.306;12.384;2022-07-06T00:30:54;100706.00;;;21.00
24639;BMP180;1641;51.306;12.384;2022-07-06T00:33:20;100713.00;;;20.90
24639;BMP180;1641;51.306;12.384;2022-07-06T00:35:46;100709.00;;;21.10
24639;BMP180;1641;51.306;12.384;2022-07-06T00:38:11;100707.00;;;21.00
24639;BMP180;1641;51.306;12.384;2022-07-06T00:40:36;100691.00;;;20.80
24639;BMP180;1641;51.306;12.384;2022-07-06T00:43:02;100709.00;;;20.90
24639;BMP180;1641;51.306;12.384;2022-07-06T00:45:27;100709.00;;;21.00
24639;BMP180;1641;51.306;12.384;2022-07-06T00:47:53;100703.00;;;21.20
24639;BMP180;1641;51.306;12.384;2022-07-06T00:50:18;100700.00;;;21.30
24639;BMP180;1641;51.306;12.384;2022-07-06T00:52:49;100706.00;;;21.30
24639;BMP180;1641;51.306;12.384;2022-07-06T00:55:17;100711.00;;;20.70
24639;BMP180;1641;51.306;12.384;2022-07-06T00:57:43;100713.00;;;20.50
24639;BMP180;1641;51.306;12.384;2022-07-06T01:00:11;100711.00;;;20.50
24639;BMP180;1641;51.306;12.384;2022-07-06T01:02:37;100716.00;;;20.50
24639;BMP180;1641;51.306;12.384;2022-07-06T01:05:07;100721.00;;;20.50
24639;BMP180;1641;51.306;12.384;2022-07-06T01:07:33;100715.00;;;20.50
24639;BMP180;1641;51.306;12.384;2022-07-06T01:09:58;100697.00;;;20.50
24639;BMP180;1641;51.306;12.384;2022-07-06T01:12:23;100706.00;;;20.50
24639;BMP180;1641;51.306;12.384;2022-07-06T01:14:49;100704.00;;;20.70
24639;BMP180;1641;51.306;12.384;2022-07-06T01:17:15;100714.00;;;20.20
24639;BMP180;1641;51.306;12.384;2022-07-06T01:19:41;100705.00;;;20.20
24639;BMP180;1641;51.306;12.384;2022-07-06T01:22:06;100675.00;;;20.20
24639;BMP180;1641;51.306;12.384;2022-07-06T01:24:32;100700.00;;;20.00
24639;BMP180;1641;51.306;12.384;2022-07-06T01:26:59;100707.00;;;20.10
24639;BMP180;1641;51.306;12.384;2022-07-06T01:29:24;100687.00;;;20.00
24639;BMP180;1641;51.306;12.384;2022-07-06T01:31:50;100629.00;;;20.10
24639;BMP180;1641;51.306;12.384;2022-07-06T01:34:16;100701.00;;;19.80
24639;BMP180;1641;51.306;12.384;2022-07-06T01:36:42;100710.00;;;19.70
24639;BMP180;1641;51.306;12.384;2022-07-06T01:39:08;100703.00;;;19.50
24639;BMP180;1641;51.306;12.384;2022-07-06T01:41:34;100704.00;;;19.70
24639;BMP180;1641;51.306;12.384;2022-07-06T01:44:00;100714.00;;;19.20
24639;BMP180;1641;51.306;12.384;2022-07-06T01:46:25;100710.00;;;19.40
24639;BMP180;1641;51.306;12.384;2022-07-06T01:48:50;100701.00;;;19.50
24639;BMP180;1641;51.306;12.384;2022-07-06T01:51:16;100706.00;;;19.40
24639;BMP180;1641;51.306;12.384;2022-07-06T01:53:41;100698.00;;;19.40
24639;BMP180;1641;51.306;12.384;2022-07-06T01:56:07;100704.00;;;19.10
24639;BMP180;1641;51.306;12.384;2022-07-06T01:58:33;100684.00;;;18.90
24639;BMP180;1641;51.306;12.384;2022-07-06T02:00:58;100713.00;;;19.00
24639;BMP180;1641;51.306;12.384;2022-07-06T02:03:23;100716.00;;;19.00
24639;BMP180;1641;51.306;12.384;2022-07-06T02:05:49;100714.00;;;18.70
24639;BMP180;1641;51.306;12.384;2022-07-06T02:08:14;100717.00;;;18.50
24639;BMP180;1641;51.306;12.384;2022-07-06T02:10:45;100718.00;;;18.60
24639;BMP180;1641;51.306;12.384;2022-07-06T02:13:10;100711.00;;;18.80
24639;BMP180;1641;51.306;12.384;2022-07-06T02:15:38;100721.00;;;18.70
24639;BMP180;1641;51.306;12.384;2022-07-06T02:18:04;100708.00;;;18.70
24639;BMP180;1641;51.306;12.384;2022-07-06T02:20:29;100719.00;;;18.80
24639;BMP180;1641;51.306;12.384;2022-07-06T02:22:54;100716.00;;;18.80
24639;BMP180;1641;51.306;12.384;2022-07-06T02:25:25;100708.00;;;18.90
24639;BMP180;1641;51.306;12.384;2022-07-06T02:27:54;100680.00;;;18.70
24639;BMP180;1641;51.306;12.384;2022-07-06T02:30:19;100712.00;;;18.60
24639;BMP180;1641;51.306;12.384;2022-07-06T02:32:44;100722.00;;;18.50
24639;BMP180;1641;51.306;12.384;2022-07-06T02:35:10;100721.00;;;18.50
24639;BMP180;1641;51.306;12.384;2022-07-06T02:37:35;100719.00;;;18.40
24639;BMP180;1641;51.306;12.384;2022-07-06T02:40:00;100720.00;;;18.30
24639;BMP180;1641;51.306;12.384;2022-07-06T02:42:29;100720.00;;;18.20
24639;BMP180;1641;51.306;12.384;2022-07-06T02:44:54;100720.00;;;18.30
24639;BMP180;1641;51.306;12.384;2022-07-06T02:47:20;100722.00;;;18.40
24639;BMP180;1641;51.306;12.384;2022-07-06T02:49:45;100727.00;;;18.50
24639;BMP180;1641;51.306;12.384;2022-07-06T02:52:10;100712.00;;;18.60
24639;BMP180;1641;51.306;12.384;2022-07-06T02:54:35;100731.00;;;18.20
24639;BMP180;1641;51.306;12.384;2022-07-06T02:57:01;100733.00;;;18.20
24639;BMP180;1641;51.306;12.384;2022-07-06T02:59:26;100729.00;;;18.30
24639;BMP180;1641;51.306;12.384;2022-07-06T03:01:51;100725.00;;;18.30
24639;BMP180;1641;51.306;12.384;2022-07-06T03:04:16;100739.00;;;18.10
24639;BMP180;1641;51.306;12.384;2022-07-06T03:06:45;100742.00;;;17.90
24639;BMP180;1641;51.306;12.384;2022-07-06T03:09:10;100753.00;;;17.80
24639;BMP180;1641;51.306;12.384;2022-07-06T03:11:35;100740.00;;;17.80
24639;BMP180;1641;51.306;12.384;2022-07-06T03:14:04;100730.00;;;18.10
24639;BMP180;1641;51.306;12.384;2022-07-06T03:16:33;100752.00;;;17.90
24639;BMP180;1641;51.306;12.384;2022-07-06T03:18:58;100741.00;;;17.90
24639;BMP180;1641;51.306;12.384;2022-07-06T03:21:24;100748.00;;;17.70
24639;BMP180;1641;51.306;12.384;2022-07-06T03:23:50;100757.00;;;18.00
24639;BMP180;1641;51.306;12.384;2022-07-06T03:26:15;100751.00;;;17.60
24639;BMP180;1641;51.306;12.384;2022-07-06T03:28:40;100754.00;;;17.80
24639;BMP180;1641;51.306;12.384;2022-07-06T03:31:06;100748.00;;;17.90
24639;BMP180;1641;51.306;12.384;2022-07-06T03:33:31;100752.00;;;17.70
24639;BMP180;1641;51.306;12.384;2022-07-06T03:35:56;100757.00;;;17.70
24639;BMP180;1641;51.306;12.384;2022-07-06T03:38:22;100757.00;;;17.80
24639;BMP180;1641;51.306;12.384;2022-07-06T03:40:47;100753.00;;;17.70
24639;BMP180;1641;51.306;12.384;2022-07-06T03:43:12;100748.00;;;17.80
24639;BMP180;1641;51.306;12.384;2022-07-06T03:45:38;100754.00;;;17.50
24639;BMP180;1641;51.306;12.384;2022-07-06T03:48:06;100759.00;;;17.40
24639;BMP180;1641;51.306;12.384;2022-07-06T03:50:32;100753.00;;;17.90
24639;BMP180;1641;51.306;12.384;2022-07-06T03:52:57;100755.00;;;17.90
24639;BMP180;1641;51.306;12.384;2022-07-06T03:55:22;100752.00;;;18.10
24639;BMP180;1641;51.306;12.384;2022-07-06T03:57:47;100773.00;;;17.80
24639;BMP180;1641;51.306;12.384;2022-07-06T04:00:13;100770.00;;;17.70
24639;BMP180;1641;51.306;12.384;2022-07-06T04:02:39;100765.00;;;18.10
24639;BMP180;1641;51.306;12.384;2022-07-06T04:05:04;100778.00;;;18.00
24639;BMP180;1641;51.306;12.384;2022-07-06T04:07:30;100771.00;;;18.10
24639;BMP180;1641;51.306;12.384;2022-07-06T04:09:55;100773.00;;;17.80
24639;BMP180;1641;51.306;12.384;2022-07-06T04:12:23;100783.00;;;17.70
24639;BMP180;1641;51.306;12.384;2022-07-06T04:14:48;100774.00;;;17.70
24639;BMP180;1641;51.306;12.384;2022-07-06T04:17:14;100772.00;;;17.80
24639;BMP180;1641;51.306;12.384;2022-07-06T04:20:04;100781.00;;;17.70
24639;BMP180;1641;51.306;12.384;2022-07-06T04:22:29;100786.00;;;17.90
24639;BMP180;1641;51.306;12.384;2022-07-06T04:24:55;100783.00;;;17.90
24639;BMP180;1641;51.306;12.384;2022-07-06T04:27:20;100761.00;;;18.10
24639;BMP180;1641;51.306;12.384;2022-07-06T04:29:45;100785.00;;;18.10
24639;BMP180;1641;51.306;12.384;2022-07-06T04:32:10;100783.00;;;18.20
24639;BMP180;1641;51.306;12.384;2022-07-06T04:34:36;100790.00;;;18.10
24639;BMP180;1641;51.306;12.384;2022-07-06T04:37:01;100790.00;;;18.10
24639;BMP180;1641;51.306;12.384;2022-07-06T04:39:26;100797.00;;;18.10
24639;BMP180;1641;51.306;12.384;2022-07-06T04:41:52;100763.00;;;18.20
24639;BMP180;1641;51.306;12.384;2022-07-06T04:44:17;100792.00;;;18.00
24639;BMP180;1641;51.306;12.384;2022-07-06T04:46:43;100810.00;;;18.00
24639;BMP180;1641;51.306;12.384;2022-07-06T04:49:08;100806.00;;;18.00
24639;BMP180;1641;51.306;12.384;2022-07-06T04:51:33;100728.00;;;18.10
24639;BMP180;1641;51.306;12.384;2022-07-06T04:53:58;100803.00;;;18.40
24639;BMP180;1641;51.306;12.384;2022-07-06T04:56:24;100797.00;;;18.40
24639;BMP180;1641;51.306;12.384;2022-07-06T04:58:49;100811.00;;;18.40
24639;BMP180;1641;51.306;12.384;2022-07-06T05:01:14;100777.00;;;18.00
24639;BMP180;1641;51.306;12.384;2022-07-06T05:03:40;100799.00;;;18.20
24639;BMP180;1641;51.306;12.384;2022-07-06T05:06:06;100756.00;;;17.90
24639;BMP180;1641;51.306;12.384;2022-07-06T05:08:32;100800.00;;;18.10
24639;BMP180;1641;51.306;12.384;2022-07-06T05:10:57;100797.00;;;18.30
24639;BMP180;1641;51.306;12.384;2022-07-06T05:13:22;100795.00;;;18.20
24639;BMP180;1641;51.306;12.384;2022-07-06T05:15:47;100796.00;;;18.30
24639;BMP180;1641;51.306;12.384;2022-07-06T05:18:13;100796.00;;;18.40
24639;BMP180;1641;51.306;12.384;2022-07-06T05:20:38;100766.00;;;18.50
24639;BMP180;1641;51.306;12.384;2022-07-06T05:23:03;100790.00;;;18.70
24639;BMP180;1641;51.306;12.384;2022-07-06T05:25:28;100812.00;;;18.70
24639;BMP180;1641;51.306;12.384;2022-07-06T05:27:55;100809.00;;;19.00
24639;BMP180;1641;51.306;12.384;2022-07-06T05:30:20;100811.00;;;19.20
24639;BMP180;1641;51.306;12.384;2022-07-06T05:32:45;100822.00;;;18.90
24639;BMP180;1641;51.306;12.384;2022-07-06T05:35:11;100811.00;;;18.40
24639;BMP180;1641;51.306;12.384;2022-07-06T05:37:36;100803.00;;;18.60
24639;BMP180;1641;51.306;12.384;2022-07-06T05:40:01;100815.00;;;18.90
24639;BMP180;1641;51.306;12.384;2022-07-06T05:42:27;100824.00;;;18.80
24639;BMP180;1641;51.306;12.384;2022-07-06T05:44:55;100828.00;;;18.60
24639;BMP180;1641;51.306;12.384;2022-07-06T05:47:21;100826.00;;;19.10
24639;BMP180;1641;51.306;12.384;2022-07-06T05:50:05;100788.00;;;18.50
24639;BMP180;1641;51.306;12.384;2022-07-06T05:52:44;100819.00;;;18.50
24639;BMP180;1641;51.306;12.384;2022-07-06T05:55:11;100816.00;;;18.60
24639;BMP180;1641;51.306;12.384;2022-07-06T05:57:37;100819.00;;;18.70
24639;BMP180;1641;51.306;12.384;2022-07-06T06:00:04;100825.00;;;18.80
24639;BMP180;1641;51.306;12.384;2022-07-06T06:02:37;100820.00;;;18.70
24639;BMP180;1641;51.306;12.384;2022-07-06T06:05:03;100818.00;;;18.60
24639;BMP180;1641;51.306;12.384;2022-07-06T06:07:28;100813.00;;;18.50
24639;BMP180;1641;51.306;12.384;2022-07-06T06:09:53;100827.00;;;18.70
24639;BMP180;1641;51.306;12.384;2022-07-06T06:12:18;100823.00;;;18.70
24639;BMP180;1641;51.306;12.384;2022-07-06T06:14:44;100831.00;;;18.80
24639;BMP180;1641;51.306;12.384;2022-07-06T06:17:09;100830.00;;;18.30
24639;BMP180;1641;51.306;12.384;2022-07-06T06:19:35;100846.00;;;18.40
24639;BMP180;1641;51.306;12.384;2022-07-06T06:22:01;100845.00;;;19.00
24639;BMP180;1641;51.306;12.384;2022-07-06T06:24:27;100844.00;;;20.00
24639;BMP180;1641;51.306;12.384;2022-07-06T06:26:53;100833.00;;;20.20
24639;BMP180;1641;51.306;12.384;2022-07-06T06:29:18;100847.00;;;21.40
24639;BMP180;1641;51.306;12.384;2022-07-06T06:31:43;100848.00;;;22.00
24639;BMP180;1641;51.306;12.384;2022-07-06T06:34:09;100848.00;;;22.20
24639;BMP180;1641;51.306;12.384;2022-07-06T06:36:34;100850.00;;;21.80
24639;BMP180;1641;51.306;12.384;2022-07-06T06:38:59;100851.00;;;21.10
24639;BMP180;1641;51.306;12.384;2022-07-06T06:41:24;100857.00;;;20.80
24639;BMP180;1641;51.306;12.384;2022-07-06T06:43:50;100852.00;;;20.30
24639;BMP180;1641;51.306;12.384;2022-07-06T06:46:15;100864.00;;;20.10
24639;BMP180;1641;51.306;12.384;2022-07-06T06:48:40;100856.00;;;20.40
24639;BMP180;1641;51.306;12.384;2022-07-06T06:51:05;100874.00;;;20.50
24639;BMP180;1641;51.306;12.384;2022-07-06T06:53:31;100869.00;;;20.30
24639;BMP180;1641;51.306;12.384;2022-07-06T06:55:56;100874.00;;;20.10
24639;BMP180;1641;51.306;12.384;2022-07-06T06:58:21;100868.00;;;20.30
24639;BMP180;1641;51.306;12.384;2022-07-06T07:00:46;100865.00;;;20.70
24639;BMP180;1641;51.306;12.384;2022-07-06T07:03:12;100865.00;;;21.40
24639;BMP180;1641;51.306;12.384;2022-07-06T07:05:37;100873.00;;;21.70
24639;BMP180;1641;51.306;12.384;2022-07-06T07:08:03;100881.00;;;22.00
24639;BMP180;1641;51.306;12.384;2022-07-06T07:10:28;100869.00;;;21.50
24639;BMP180;1641;51.306;12.384;2022-07-06T07:12:53;100881.00;;;21.40
24639;BMP180;1641;51.306;12.384;2022-07-06T07:15:19;100886.00;;;20.70
24639;BMP180;1641;51.306;12.384;2022-07-06T07:17:44;100886.00;;;21.20
24639;BMP180;1641;51.306;12.384;2022-07-06T07:20:10;100878.00;;;22.60
24639;BMP180;1641;51.306;12.384;2022-07-06T07:22:35;100871.00;;;23.40
24639;BMP180;1641;51.306;12.384;2022-07-06T07:25:01;100884.00;;;23.60
24639;BMP180;1641;51.306;12.384;2022-07-06T07:27:26;100887.00;;;24.10
24639;BMP180;1641;51.306;12.384;2022-07-06T07:29:51;100884.00;;;22.40
24639;BMP180;1641;51.306;12.384;2022-07-06T07:32:16;100886.00;;;22.10
24639;BMP180;1641;51.306;12.384;2022-07-06T07:34:42;100894.00;;;21.60
24639;BMP180;1641;51.306;12.384;2022-07-06T07:37:07;100868.00;;;22.00
24639;BMP180;1641;51.306;12.384;2022-07-06T07:39:32;100890.00;;;22.30
24639;BMP180;1641;51.306;12.384;2022-07-06T07:41:57;100881.00;;;22.20
24639;BMP180;1641;51.306;12.384;2022-07-06T07:44:23;100876.00;;;23.20
24639;BMP180;1641;51.306;12.384;2022-07-06T07:46:50;100879.00;;;22.90
24639;BMP180;1641;51.306;12.384;2022-07-06T07:49:15;100878.00;;;23.80
24639;BMP180;1641;51.306;12.384;2022-07-06T07:51:40;100881.00;;;25.00
24639;BMP180;1641;51.306;12.384;2022-07-06T07:54:06;100856.00;;;26.10
24639;BMP180;1641;51.306;12.384;2022-07-06T07:56:32;100829.00;;;24.50
24639;BMP180;1641;51.306;12.384;2022-07-06T07:58:57;100882.00;;;24.00
24639;BMP180;1641;51.306;12.384;2022-07-06T08:01:22;100891.00;;;24.30
24639;BMP180;1641;51.306;12.384;2022-07-06T08:03:47;100893.00;;;23.90
24639;BMP180;1641;51.306;12.384;2022-07-06T08:06:12;100896.00;;;23.30
24639;BMP180;1641;51.306;12.384;2022-07-06T08:08:38;100893.00;;;23.30
24639;BMP180;1641;51.306;12.384;2022-07-06T08:11:03;100891.00;;;22.60
24639;BMP180;1641;51.306;12.384;2022-07-06T08:13:28;100881.00;;;22.20
24639;BMP180;1641;51.306;12.384;2022-07-06T08:15:54;100889.00;;;22.30
24639;BMP180;1641;51.306;12.384;2022-07-06T08:18:19;100882.00;;;23.30
24639;BMP180;1641;51.306;12.384;2022-07-06T08:20:44;100882.00;;;23.20
24639;BMP180;1641;51.306;12.384;2022-07-06T08:23:09;100873.00;;;24.40
24639;BMP180;1641;51.306;12.384;2022-07-06T08:25:35;100882.00;;;23.70
24639;BMP180;1641;51.306;12.384;2022-07-06T08:28:00;100882.00;;;23.10
24639;BMP180;1641;51.306;12.384;2022-07-06T08:30:25;100882.00;;;21.90
24639;BMP180;1641;51.306;12.384;2022-07-06T08:32:51;100885.00;;;20.90
24639;BMP180;1641;51.306;12.384;2022-07-06T08:35:16;100899.00;;;21.80
24639;BMP180;1641;51.306;12.384;2022-07-06T08:37:41;100879.00;;;23.70
24639;BMP180;1641;51.306;12.384;2022-07-06T08:40:07;100800.00;;;25.20
24639;BMP180;1641;51.306;12.384;2022-07-06T08:42:34;100871.00;;;24.70
24639;BMP180;1641;51.306;12.384;2022-07-06T08:45:03;100877.00;;;24.60
24639;BMP180;1641;51.306;12.384;2022-07-06T08:47:30;100888.00;;;25.00
24639;BMP180;1641;51.306;12.384;2022-07-06T08:49:56;100888.00;;;23.60
24639;BMP180;1641;51.306;12.384;2022-07-06T08:52:22;100888.00;;;24.50
24639;BMP180;1641;51.306;12.384;2022-07-06T08:54:48;100880.00;;;25.50
24639;BMP180;1641;51.306;12.384;2022-07-06T08:57:14;100882.00;;;25.80
24639;BMP180;1641;51.306;12.384;2022-07-06T08:59:39;100864.00;;;26.20
24639;BMP180;1641;51.306;12.384;2022-07-06T09:02:05;100818.00;;;26.60
24639;BMP180;1641;51.306;12.384;2022-07-06T09:04:32;100879.00;;;27.60
24639;BMP180;1641;51.306;12.384;2022-07-06T09:06:58;100879.00;;;26.20
24639;BMP180;1641;51.306;12.384;2022-07-06T09:09:24;100885.00;;;27.50
24639;BMP180;1641;51.306;12.384;2022-07-06T09:11:49;100889.00;;;27.10
24639;BMP180;1641;51.306;12.384;2022-07-06T09:14:15;100880.00;;;26.60
24639;BMP180;1641;51.306;12.384;2022-07-06T09:16:41;100847.00;;;24.70
24639;BMP180;1641;51.306;12.384;2022-07-06T09:19:07;100887.00;;;25.30
24639;BMP180;1641;51.306;12.384;2022-07-06T09:21:33;100874.00;;;26.10
24639;BMP180;1641;51.306;12.384;2022-07-06T09:24:04;100875.00;;;26.50
24639;BMP180;1641;51.306;12.384;2022-07-06T09:26:30;100876.00;;;25.70
24639;BMP180;1641;51.306;12.384;2022-07-06T09:28:56;100869.00;;;27.00
24639;BMP180;1641;51.306;12.384;2022-07-06T09:31:22;100883.00;;;25.90
24639;BMP180;1641;51.306;12.384;2022-07-06T09:36:49;100882.00;;;23.50
24639;BMP180;1641;51.306;12.384;2022-07-06T09:39:32;100879.00;;;24.10
24639;BMP180;1641;51.306;12.384;2022-07-06T09:42:02;100884.00;;;23.30
24639;BMP180;1641;51.306;12.384;2022-07-06T09:44:31;100873.00;;;23.30
24639;BMP180;1641;51.306;12.384;2022-07-06T09:46:58;100866.00;;;25.00
24639;BMP180;1641;51.306;12.384;2022-07-06T09:49:25;100874.00;;;26.50
24639;BMP180;1641;51.306;12.384;2022-07-06T09:51:52;100875.00;;;26.70
24639;BMP180;1641;51.306;12.384;2022-07-06T09:54:18;100876.00;;;24.90
24639;BMP180;1641;51.306;12.384;2022-07-06T09:56:48;100882.00;;;24.00
24639;BMP180;1641;51.306;12.384;2022-07-06T09:59:23;100880.00;;;23.50
24639;BMP180;1641;51.306;12.384;2022-07-06T10:02:05;100819.00;;;23.90
24639;BMP180;1641;51.306;12.384;2022-07-06T10:04:34;100858.00;;;24.70
24639;BMP180;1641;51.306;12.384;2022-07-06T10:07:01;100877.00;;;24.90
24639;BMP180;1641;51.306;12.384;2022-07-06T10:09:28;100876.00;;;25.40
24639;BMP180;1641;51.306;12.384;2022-07-06T10:11:58;100873.00;;;25.10
24639;BMP180;1641;51.306;12.384;2022-07-06T10:14:34;100873.00;;;24.00
24639;BMP180;1641;51.306;12.384;2022-07-06T10:17:01;100874.00;;;24.00
24639;BMP180;1641;51.306;12.384;2022-07-06T10:19:29;100875.00;;;24.10
24639;BMP180;1641;51.306;12.384;2022-07-06T10:21:57;100875.00;;;23.80
24639;BMP180;1641;51.306;12.384;2022-07-06T10:24:23;100878.00;;;23.00
24639;BMP180;1641;51.306;12.384;2022-07-06T10:26:49;100875.00;;;22.20
24639;BMP180;1641;51.306;12.384;2022-07-06T10:29:15;100873.00;;;22.20
24639;BMP180;1641;51.306;12.384;2022-07-06T10:31:43;100873.00;;;22.70
24639;BMP180;1641;51.306;12.384;2022-07-06T10:34:11;100878.00;;;22.50
24639;BMP180;1641;51.306;12.384;2022-07-06T10:36:42;100810.00;;;22.70
24639;BMP180;1641;51.306;12.384;2022-07-06T10:39:09;100867.00;;;22.90
24639;BMP180;1641;51.306;12.384;2022-07-06T10:41:53;100864.00;;;22.80
24639;BMP180;1641;51.306;12.384;2022-07-06T10:44:23;100860.00;;;23.10
24639;BMP180;1641;51.306;12.384;2022-07-06T10:49:18;100857.00;;;23.50
24639;BMP180;1641;51.306;12.384;2022-07-06T10:51:43;100823.00;;;23.60
24639;BMP180;1641;51.306;12.384;2022-07-06T10:54:12;100856.00;;;23.00
24639;BMP180;1641;51.306;12.384;2022-07-06T10:56:40;100858.00;;;22.40
24639;BMP180;1641;51.306;12.384;2022-07-06T10:59:20;100847.00;;;23.00
24639;BMP180;1641;51.306;12.384;2022-07-06T11:02:21;100850.00;;;22.90
24639;BMP180;1641;51.306;12.384;2022-07-06T11:04:47;100850.00;;;23.00
24639;BMP180;1641;51.306;12.384;2022-07-06T11:07:18;100819.00;;;23.00
24639;BMP180;1641;51.306;12.384;2022-07-06T11:09:59;100820.00;;;23.00
24639;BMP180;1641;51.306;12.384;2022-07-06T11:12:27;100838.00;;;22.70
24639;BMP180;1641;51.306;12.384;2022-07-06T11:14:53;100831.00;;;22.70
24639;BMP180;1641;51.306;12.384;2022-07-06T11:17:19;100827.00;;;22.90
24639;BMP180;1641;51.306;12.384;2022-07-06T11:19:58;100844.00;;;22.80
24639;BMP180;1641;51.306;12.384;2022-07-06T11:22:24;100785.00;;;22.60
24639;BMP180;1641;51.306;12.384;2022-07-06T11:24:50;100833.00;;;23.00
24639;BMP180;1641;51.306;12.384;2022-07-06T11:27:17;100839.00;;;22.90
24639;BMP180;1641;51.306;12.384;2022-07-06T11:29:43;100835.00;;;22.00
24639;BMP180;1641;51.306;12.384;2022-07-06T11:32:11;100851.00;;;22.50
24639;BMP180;1641;51.306;12.384;2022-07-06T11:34:42;100838.00;;;23.00
24639;BMP180;1641;51.306;12.384;2022-07-06T11:37:12;100828.00;;;23.30
24639;BMP180;1641;51.306;12.384;2022-07-06T11:39:43;100808.00;;;23.30
24639;BMP180;1641;51.306;12.384;2022-07-06T11:42:10;100832.00;;;23.20
24639;BMP180;1641;51.306;12.384;2022-07-06T11:44:36;100830.00;;;23.60
24639;BMP180;1641;51.306;12.384;2022-07-06T11:47:03;100828.00;;;23.60
24639;BMP180;1641;51.306;12.384;2022-07-06T11:49:37;100825.00;;;23.80
24639;BMP180;1641;51.306;12.384;2022-07-06T11:52:11;100814.00;;;23.40
24639;BMP180;1641;51.306;12.384;2022-07-06T11:54:37;100824.00;;;23.30
24639;BMP180;1641;51.306;12.384;2022-07-06T11:57:10;100815.00;;;23.40
24639;BMP180;1641;51.306;12.384;2022-07-06T11:59:37;100824.00;;;23.30
24639;BMP180;1641;51.306;12.384;2022-07-06T12:02:08;100767.00;;;22.90
24639;BMP180;1641;51.306;12.384;2022-07-06T12:04:40;100826.00;;;23.00
24639;BMP180;1641;51.306;12.384;2022-07-06T12:07:07;100826.00;;;23.00
24639;BMP180;1641;51.306;12.384;2022-07-06T12:09:37;100816.00;;;23.10
24639;BMP180;1641;51.306;12.384;2022-07-06T12:12:04;100811.00;;;23.80
24639;BMP180;1641;51.306;12.384;2022-07-06T12:14:31;100816.00;;;23.40
24639;BMP180;1641;51.306;12.384;2022-07-06T12:17:03;100818.00;;;22.90
24639;BMP180;1641;51.306;12.384;2022-07-06T12:19:53;100815.00;;;22.60
24639;BMP180;1641;51.306;12.384;2022-07-06T12:22:25;100797.00;;;22.70
24639;BMP180;1641;51.306;12.384;2022-07-06T12:24:50;100782.00;;;23.10
24639;BMP180;1641;51.306;12.384;2022-07-06T12:27:17;100810.00;;;23.30
24639;BMP180;1641;51.306;12.384;2022-07-06T12:29:43;100803.00;;;23.60
24639;BMP180;1641;51.306;12.384;2022-07-06T12:32:20;100808.00;;;23.30
24639;BMP180;1641;51.306;12.384;2022-07-06T12:35:07;100786.00;;;23.00
24639;BMP180;1641;51.306;12.384;2022-07-06T12:37:32;100776.00;;;23.00
24639;BMP180;1641;51.306;12.384;2022-07-06T12:40:02;100803.00;;;23.40
24639;BMP180;1641;51.306;12.384;2022-07-06T12:42:45;100809.00;;;23.60
24639;BMP180;1641;51.306;12.384;2022-07-06T12:45:10;100806.00;;;23.20
24639;BMP180;1641;51.306;12.384;2022-07-06T12:47:35;100793.00;;;23.10
24639;BMP180;1641;51.306;12.384;2022-07-06T12:50:11;100812.00;;;23.30
24639;BMP180;1641;51.306;12.384;2022-07-06T12:52:40;100728.00;;;23.40
24639;BMP180;1641;51.306;12.384;2022-07-06T12:55:07;100795.00;;;23.30
24639;BMP180;1641;51.306;12.384;2022-07-06T12:57:46;100802.00;;;23.50
24639;BMP180;1641;51.306;12.384;2022-07-06T13:00:11;100794.00;;;23.90
24639;BMP180;1641;51.306;12.384;2022-07-06T13:02:37;100771.00;;;23.90
24639;BMP180;1641;51.306;12.384;2022-07-06T13:05:03;100792.00;;;24.00
24639;BMP180;1641;51.306;12.384;2022-07-06T13:07:30;100781.00;;;24.00
24639;BMP180;1641;51.306;12.384;2022-07-06T13:10:00;100785.00;;;24.60
24639;BMP180;1641;51.306;12.384;2022-07-06T13:12:26;100776.00;;;23.70
24639;BMP180;1641;51.306;12.384;2022-07-06T13:14:51;100789.00;;;23.70
24639;BMP180;1641;51.306;12.384;2022-07-06T13:17:17;100783.00;;;23.90
24639;BMP180;1641;51.306;12.384;2022-07-06T13:19:43;100797.00;;;23.90
24639;BMP180;1641;51.306;12.384;2022-07-06T13:22:08;100737.00;;;23.50
24639;BMP180;1641;51.306;12.384;2022-07-06T13:24:34;100787.00;;;22.90
24639;BMP180;1641;51.306;12.384;2022-07-06T13:27:01;100792.00;;;23.10
24639;BMP180;1641;51.306;12.384;2022-07-06T13:29:26;100789.00;;;23.30
24639;BMP180;1641;51.306;12.384;2022-07-06T13:31:51;100782.00;;;23.50
24639;BMP180;1641;51.306;12.384;2022-07-06T13:34:20;100745.00;;;23.70
24639;BMP180;1641;51.306;12.384;2022-07-06T13:36:45;100783.00;;;23.50
24639;BMP180;1641;51.306;12.384;2022-07-06T13:39:10;100760.00;;;23.50
24639;BMP180;1641;51.306;12.384;2022-07-06T13:41:36;100784.00;;;24.10
24639;BMP180;1641;51.306;12.384;2022-07-06T13:44:01;100775.00;;;24.10
24639;BMP180;1641;51.306;12.384;2022-07-06T13:46:28;100772.00;;;23.90
24639;BMP180;1641;51.306;12.384;2022-07-06T13:48:54;100757.00;;;24.00
24639;BMP180;1641;51.306;12.384;2022-07-06T13:51:19;100763.00;;;24.40
24639;BMP180;1641;51.306;12.384;2022-07-06T13:53:45;100749.00;;;24.10
24639;BMP180;1641;51.306;12.384;2022-07-06T13:56:11;100764.00;;;23.50
24639;BMP180;1641;51.306;12.384;2022-07-06T13:58:36;100744.00;;;23.40
24639;BMP180;1641;51.306;12.384;2022-07-06T14:01:03;100752.00;;;23.20